sensor_id;sensor_type;location;lat;lon;timestamp;pressure;altitude;pressure_sealevel;temperature;humidity
18988;BME280;5494;51.796;10.952;2022-09-06T00:01:10;99381.06;;;18.17;80.43
18988;BME280;5494;51.796;10.952;2022-09-06T00:03:40;99378.69;;;18.25;79.69
18988;BME280;5494;51.796;10.952;2022-09-06T00:06:11;99365.53;;;18.36;79.63
18988;BME280;5494;51.796;10.952;2022-09-06T00:08:43;99376.16;;;18.34;79.25
18988;BME280;5494;51.796;10.952;2022-09-06T00:11:14;99380.13;;;18.29;79.45
18988;BME280;5494;51.796;10.952;2022-09-06T00:13:43;99375.53;;;18.20;79.87
18988;BME280;5494;51.796;10.952;2022-09-06T00:16:16;99377.69;;;18.15;80.15
18988;BME280;5494;51.796;10.952;2022-09-06T00:18:45;99371.00;;;18.10;80.54
18988;BME280;5494;51.796;10.952;2022-09-06T00:21:17;99371.28;;;17.95;81.06
18988;BME280;5494;51.796;10.952;2022-09-06T00:23:49;99377.34;;;17.84;82.11
18988;BME280;5494;51.796;10.952;2022-09-06T00:26:18;99368.84;;;17.81;82.40
18988;BME280;5494;51.796;10.952;2022-09-06T00:28:47;99368.22;;;17.77;82.61
18988;BME280;5494;51.796;10.952;2022-09-06T00:31:20;99375.84;;;17.69;83.41
18988;BME280;5494;51.796;10.952;2022-09-06T00:33:49;99371.09;;;17.74;83.11
18988;BME280;5494;51.796;10.952;2022-09-06T00:36:19;99369.69;;;17.81;82.44
18988;BME280;5494;51.796;10.952;2022-09-06T00:38:49;99370.97;;;17.76;82.43
18988;BME280;5494;51.796;10.952;2022-09-06T00:41:17;99371.13;;;17.85;82.77
18988;BME280;5494;51.796;10.952;2022-09-06T00:43:46;99374.50;;;17.87;82.43
18988;BME280;5494;51.796;10.952;2022-09-06T00:46:18;99370.56;;;17.93;82.28
18988;BME280;5494;51.796;10.952;2022-09-06T00:48:52;99373.66;;;17.87;82.05
18988;BME280;5494;51.796;10.952;2022-09-06T00:51:26;99371.13;;;17.85;82.46
18988;BME280;5494;51.796;10.952;2022-09-06T00:53:57;99382.66;;;17.71;83.21
18988;BME280;5494;51.796;10.952;2022-09-06T00:56:29;99389.31;;;17.64;83.24
18988;BME280;5494;51.796;10.952;2022-09-06T00:58:59;99375.56;;;17.61;82.95
18988;BME280;5494;51.796;10.952;2022-09-06T01:01:28;99386.16;;;17.59;83.11
18988;BME280;5494;51.796;10.952;2022-09-06T01:03:57;99383.75;;;17.69;82.50
18988;BME280;5494;51.796;10.952;2022-09-06T01:06:37;99389.00;;;17.69;82.95
18988;BME280;5494;51.796;10.952;2022-09-06T01:09:21;99389.88;;;17.81;81.95
18988;BME280;5494;51.796;10.952;2022-09-06T01:12:07;99387.28;;;17.92;80.81
18988;BME280;5494;51.796;10.952;2022-09-06T01:15:04;99389.47;;;17.98;80.49
18988;BME280;5494;51.796;10.952;2022-09-06T01:17:49;99384.28;;;17.85;81.10
18988;BME280;5494;51.796;10.952;2022-09-06T01:20:57;99383.41;;;17.74;81.30
18988;BME280;5494;51.796;10.952;2022-09-06T01:24:17;99382.19;;;17.54;82.15
18988;BME280;5494;51.796;10.952;2022-09-06T01:27:11;99385.38;;;17.46;83.26
18988;BME280;5494;51.796;10.952;2022-09-06T01:29:48;99379.00;;;17.38;83.35
18988;BME280;5494;51.796;10.952;2022-09-06T01:32:28;99372.06;;;17.37;83.22
18988;BME280;5494;51.796;10.952;2022-09-06T01:35:05;99376.59;;;17.35;83.39
18988;BME280;5494;51.796;10.952;2022-09-06T01:37:38;99369.22;;;17.40;83.02
18988;BME280;5494;51.796;10.952;2022-09-06T01:40:07;99373.69;;;17.26;83.45
18988;BME280;5494;51.796;10.952;2022-09-06T01:42:38;99370.31;;;17.24;83.49
18988;BME280;5494;51.796;10.952;2022-09-06T01:45:14;99373.81;;;17.12;84.02
18988;BME280;5494;51.796;10.952;2022-09-06T01:47:59;99374.97;;;17.08;84.31
18988;BME280;5494;51.796;10.952;2022-09-06T01:50:56;99375.81;;;17.09;84.93
18988;BME280;5494;51.796;10.952;2022-09-06T01:53:48;99369.72;;;17.08;85.11
18988;BME280;5494;51.796;10.952;2022-09-06T01:56:33;99375.53;;;17.01;85.25
18988;BME280;5494;51.796;10.952;2022-09-06T01:59:56;99364.06;;;17.02;85.13
18988;BME280;5494;51.796;10.952;2022-09-06T02:02:53;99355.06;;;16.93;85.40
18988;BME280;5494;51.796;10.952;2022-09-06T02:05:31;99365.44;;;16.94;85.36
18988;BME280;5494;51.796;10.952;2022-09-06T02:08:07;99365.78;;;16.90;85.18
18988;BME280;5494;51.796;10.952;2022-09-06T02:10:44;99361.81;;;16.72;85.42
18988;BME280;5494;51.796;10.952;2022-09-06T02:13:15;99357.94;;;16.65;86.15
18988;BME280;5494;51.796;10.952;2022-09-06T02:15:53;99362.84;;;16.57;86.91
18988;BME280;5494;51.796;10.952;2022-09-06T02:18:28;99358.53;;;16.55;86.68
18988;BME280;5494;51.796;10.952;2022-09-06T02:21:00;99352.97;;;16.47;87.03
18988;BME280;5494;51.796;10.952;2022-09-06T02:23:34;99346.88;;;16.34;87.51
18988;BME280;5494;51.796;10.952;2022-09-06T02:26:10;99350.44;;;16.33;87.64
18988;BME280;5494;51.796;10.952;2022-09-06T02:28:40;99348.56;;;16.35;87.76
18988;BME280;5494;51.796;10.952;2022-09-06T02:31:16;99348.38;;;16.38;87.74
18988;BME280;5494;51.796;10.952;2022-09-06T02:33:50;99340.06;;;16.44;87.14
18988;BME280;5494;51.796;10.952;2022-09-06T02:36:19;99343.84;;;16.40;87.12
18988;BME280;5494;51.796;10.952;2022-09-06T02:38:47;99341.22;;;16.40;86.87
18988;BME280;5494;51.796;10.952;2022-09-06T02:41:19;99342.72;;;16.32;87.73
18988;BME280;5494;51.796;10.952;2022-09-06T02:43:50;99349.00;;;16.42;87.52
18988;BME280;5494;51.796;10.952;2022-09-06T02:46:18;99333.88;;;16.45;87.15
18988;BME280;5494;51.796;10.952;2022-09-06T02:48:48;99335.53;;;16.46;87.58
18988;BME280;5494;51.796;10.952;2022-09-06T02:51:17;99333.22;;;16.54;86.90
18988;BME280;5494;51.796;10.952;2022-09-06T02:53:47;99328.22;;;16.51;87.10
18988;BME280;5494;51.796;10.952;2022-09-06T02:56:15;99325.47;;;16.40;87.58
18988;BME280;5494;51.796;10.952;2022-09-06T02:58:44;99321.06;;;16.41;88.31
18988;BME280;5494;51.796;10.952;2022-09-06T03:01:12;99316.75;;;16.40;88.08
18988;BME280;5494;51.796;10.952;2022-09-06T03:03:41;99321.38;;;16.36;88.57
18988;BME280;5494;51.796;10.952;2022-09-06T03:06:11;99316.44;;;16.19;89.56
18988;BME280;5494;51.796;10.952;2022-09-06T03:08:39;99313.31;;;16.14;89.63
18988;BME280;5494;51.796;10.952;2022-09-06T03:11:08;99317.59;;;16.15;89.31
18988;BME280;5494;51.796;10.952;2022-09-06T03:13:36;99309.72;;;16.28;89.19
18988;BME280;5494;51.796;10.952;2022-09-06T03:16:05;99305.53;;;16.25;88.60
18988;BME280;5494;51.796;10.952;2022-09-06T03:18:35;99317.50;;;16.42;87.75
18988;BME280;5494;51.796;10.952;2022-09-06T03:21:03;99316.13;;;16.49;87.48
18988;BME280;5494;51.796;10.952;2022-09-06T03:23:33;99307.44;;;16.36;87.99
18988;BME280;5494;51.796;10.952;2022-09-06T03:26:02;99307.84;;;16.30;88.57
18988;BME280;5494;51.796;10.952;2022-09-06T03:28:31;99312.47;;;16.26;88.96
18988;BME280;5494;51.796;10.952;2022-09-06T03:31:00;99306.50;;;16.24;88.48
18988;BME280;5494;51.796;10.952;2022-09-06T03:33:28;99308.91;;;16.14;88.77
18988;BME280;5494;51.796;10.952;2022-09-06T03:36:00;99314.13;;;16.27;88.58
18988;BME280;5494;51.796;10.952;2022-09-06T03:38:29;99312.25;;;16.29;88.41
18988;BME280;5494;51.796;10.952;2022-09-06T03:40:59;99310.38;;;16.31;88.26
18988;BME280;5494;51.796;10.952;2022-09-06T03:43:31;99311.22;;;16.32;88.09
18988;BME280;5494;51.796;10.952;2022-09-06T03:46:00;99319.19;;;16.30;87.55
18988;BME280;5494;51.796;10.952;2022-09-06T03:48:29;99316.03;;;16.25;87.70
18988;BME280;5494;51.796;10.952;2022-09-06T03:50:58;99320.00;;;16.18;87.42
18988;BME280;5494;51.796;10.952;2022-09-06T03:53:28;99315.81;;;16.28;87.22
18988;BME280;5494;51.796;10.952;2022-09-06T03:55:58;99319.19;;;16.43;86.46
18988;BME280;5494;51.796;10.952;2022-09-06T03:58:30;99325.69;;;16.37;86.30
18988;BME280;5494;51.796;10.952;2022-09-06T04:01:02;99330.41;;;16.45;86.43
18988;BME280;5494;51.796;10.952;2022-09-06T04:03:32;99328.75;;;16.44;85.70
18988;BME280;5494;51.796;10.952;2022-09-06T04:06:02;99321.47;;;16.47;85.50
18988;BME280;5494;51.796;10.952;2022-09-06T04:08:32;99320.75;;;16.33;85.55
18988;BME280;5494;51.796;10.952;2022-09-06T04:11:04;99323.88;;;16.25;85.67
18988;BME280;5494;51.796;10.952;2022-09-06T04:13:37;99335.44;;;16.35;84.82
18988;BME280;5494;51.796;10.952;2022-09-06T04:16:06;99316.66;;;16.29;84.82
18988;BME280;5494;51.796;10.952;2022-09-06T04:18:35;99319.81;;;16.21;84.54
18988;BME280;5494;51.796;10.952;2022-09-06T04:21:04;99322.25;;;16.24;84.97
18988;BME280;5494;51.796;10.952;2022-09-06T04:23:33;99321.69;;;16.19;84.94
18988;BME280;5494;51.796;10.952;2022-09-06T04:26:08;99329.28;;;16.24;84.60
18988;BME280;5494;51.796;10.952;2022-09-06T04:28:37;99324.44;;;16.18;84.90
18988;BME280;5494;51.796;10.952;2022-09-06T04:31:06;99321.50;;;16.22;84.71
18988;BME280;5494;51.796;10.952;2022-09-06T04:33:36;99309.41;;;16.20;84.37
18988;BME280;5494;51.796;10.952;2022-09-06T04:36:09;99307.44;;;16.10;85.19
18988;BME280;5494;51.796;10.952;2022-09-06T04:38:40;99310.78;;;16.12;84.77
18988;BME280;5494;51.796;10.952;2022-09-06T04:41:14;99311.44;;;16.16;84.07
18988;BME280;5494;51.796;10.952;2022-09-06T04:43:43;99307.63;;;16.20;84.60
18988;BME280;5494;51.796;10.952;2022-09-06T04:46:19;99304.91;;;16.22;83.77
18988;BME280;5494;51.796;10.952;2022-09-06T04:48:48;99313.94;;;16.18;83.94
18988;BME280;5494;51.796;10.952;2022-09-06T04:51:18;99305.34;;;16.15;84.49
18988;BME280;5494;51.796;10.952;2022-09-06T04:53:47;99301.66;;;16.05;84.25
18988;BME280;5494;51.796;10.952;2022-09-06T04:56:20;99306.88;;;16.18;84.40
18988;BME280;5494;51.796;10.952;2022-09-06T04:58:51;99306.19;;;16.03;84.34
18988;BME280;5494;51.796;10.952;2022-09-06T05:01:21;99317.88;;;15.85;84.96
18988;BME280;5494;51.796;10.952;2022-09-06T05:03:52;99317.88;;;15.72;86.19
18988;BME280;5494;51.796;10.952;2022-09-06T05:06:24;99314.50;;;15.70;86.31
18988;BME280;5494;51.796;10.952;2022-09-06T05:08:53;99310.25;;;15.82;85.36
18988;BME280;5494;51.796;10.952;2022-09-06T05:11:22;99309.31;;;15.83;85.55
18988;BME280;5494;51.796;10.952;2022-09-06T05:13:51;99309.06;;;15.73;85.48
18988;BME280;5494;51.796;10.952;2022-09-06T05:16:19;99305.41;;;15.76;84.77
18988;BME280;5494;51.796;10.952;2022-09-06T05:18:48;99309.06;;;15.73;84.94
18988;BME280;5494;51.796;10.952;2022-09-06T05:21:17;99314.28;;;15.61;84.64
18988;BME280;5494;51.796;10.952;2022-09-06T05:23:45;99310.75;;;15.48;85.12
18988;BME280;5494;51.796;10.952;2022-09-06T05:26:14;99316.28;;;15.43;85.56
18988;BME280;5494;51.796;10.952;2022-09-06T05:28:44;99308.75;;;15.51;85.64
18988;BME280;5494;51.796;10.952;2022-09-06T05:31:25;99309.69;;;15.50;84.94
18988;BME280;5494;51.796;10.952;2022-09-06T05:33:56;99315.69;;;15.52;84.99
18988;BME280;5494;51.796;10.952;2022-09-06T05:36:25;99318.78;;;15.59;84.59
18988;BME280;5494;51.796;10.952;2022-09-06T05:38:55;99314.22;;;15.48;84.34
18988;BME280;5494;51.796;10.952;2022-09-06T05:41:25;99315.69;;;15.52;85.00
18988;BME280;5494;51.796;10.952;2022-09-06T05:43:55;99311.09;;;15.83;84.12
18988;BME280;5494;51.796;10.952;2022-09-06T05:46:24;99322.09;;;15.88;83.20
18988;BME280;5494;51.796;10.952;2022-09-06T05:48:54;99318.13;;;16.07;82.12
18988;BME280;5494;51.796;10.952;2022-09-06T05:51:24;99321.50;;;16.09;82.46
18988;BME280;5494;51.796;10.952;2022-09-06T05:53:53;99317.94;;;16.23;81.99
18988;BME280;5494;51.796;10.952;2022-09-06T05:56:21;99323.78;;;15.89;82.48
18988;BME280;5494;51.796;10.952;2022-09-06T05:58:50;99310.34;;;15.93;83.37
18988;BME280;5494;51.796;10.952;2022-09-06T06:01:22;99326.50;;;16.00;83.01
18988;BME280;5494;51.796;10.952;2022-09-06T06:03:55;99320.31;;;16.01;82.98
18988;BME280;5494;51.796;10.952;2022-09-06T06:06:26;99319.19;;;16.18;82.31
18988;BME280;5494;51.796;10.952;2022-09-06T06:08:55;99308.47;;;16.21;83.02
18988;BME280;5494;51.796;10.952;2022-09-06T06:11:25;99311.31;;;16.43;81.11
18988;BME280;5494;51.796;10.952;2022-09-06T06:13:54;99319.16;;;16.55;80.06
18988;BME280;5494;51.796;10.952;2022-09-06T06:16:26;99314.03;;;16.67;78.87
18988;BME280;5494;51.796;10.952;2022-09-06T06:18:58;99308.03;;;16.77;78.81
18988;BME280;5494;51.796;10.952;2022-09-06T06:21:29;99317.84;;;16.25;79.30
18988;BME280;5494;51.796;10.952;2022-09-06T06:24:00;99306.16;;;16.29;79.51
18988;BME280;5494;51.796;10.952;2022-09-06T06:26:31;99308.16;;;16.12;79.97
18988;BME280;5494;51.796;10.952;2022-09-06T06:29:00;99311.59;;;15.88;81.19
18988;BME280;5494;51.796;10.952;2022-09-06T06:31:32;99312.34;;;15.90;81.38
18988;BME280;5494;51.796;10.952;2022-09-06T06:34:01;99307.53;;;16.22;80.14
18988;BME280;5494;51.796;10.952;2022-09-06T06:36:32;99312.78;;;16.09;81.07
18988;BME280;5494;51.796;10.952;2022-09-06T06:39:03;99318.53;;;16.39;79.41
18988;BME280;5494;51.796;10.952;2022-09-06T06:41:32;99325.16;;;16.45;79.21
18988;BME280;5494;51.796;10.952;2022-09-06T06:44:03;99324.22;;;16.59;78.74
18988;BME280;5494;51.796;10.952;2022-09-06T06:46:36;99326.34;;;16.66;78.69
18988;BME280;5494;51.796;10.952;2022-09-06T06:49:05;99326.31;;;16.79;78.30
18988;BME280;5494;51.796;10.952;2022-09-06T06:51:34;99322.41;;;16.84;78.12
18988;BME280;5494;51.796;10.952;2022-09-06T06:54:04;99325.78;;;16.86;77.97
18988;BME280;5494;51.796;10.952;2022-09-06T06:56:35;99323.91;;;16.63;79.11
18988;BME280;5494;51.796;10.952;2022-09-06T06:59:05;99323.59;;;16.68;78.80
18988;BME280;5494;51.796;10.952;2022-09-06T07:01:36;99323.75;;;16.90;78.10
18988;BME280;5494;51.796;10.952;2022-09-06T07:04:05;99321.38;;;16.74;78.25
18988;BME280;5494;51.796;10.952;2022-09-06T07:06:55;99328.50;;;16.60;79.05
18988;BME280;5494;51.796;10.952;2022-09-06T07:09:44;99324.53;;;16.67;78.25
18988;BME280;5494;51.796;10.952;2022-09-06T07:12:32;99324.00;;;16.87;77.73
18988;BME280;5494;51.796;10.952;2022-09-06T07:15:01;99319.69;;;16.86;77.72
18988;BME280;5494;51.796;10.952;2022-09-06T07:17:30;99326.91;;;16.82;77.44
18988;BME280;5494;51.796;10.952;2022-09-06T07:19:59;99322.56;;;17.30;76.07
18988;BME280;5494;51.796;10.952;2022-09-06T07:22:43;99322.38;;;17.92;73.31
18988;BME280;5494;51.796;10.952;2022-09-06T07:25:12;99324.25;;;17.79;73.18
18988;BME280;5494;51.796;10.952;2022-09-06T07:27:47;99319.34;;;17.75;73.66
18988;BME280;5494;51.796;10.952;2022-09-06T07:30:18;99320.38;;;17.72;74.13
18988;BME280;5494;51.796;10.952;2022-09-06T07:32:48;99315.97;;;17.49;74.40
18988;BME280;5494;51.796;10.952;2022-09-06T07:35:17;99305.50;;;17.36;75.10
18988;BME280;5494;51.796;10.952;2022-09-06T07:37:55;99304.13;;;17.19;76.04
18988;BME280;5494;51.796;10.952;2022-09-06T07:40:25;99293.94;;;17.39;75.48
18988;BME280;5494;51.796;10.952;2022-09-06T07:42:55;99297.06;;;18.02;73.69
18988;BME280;5494;51.796;10.952;2022-09-06T07:45:24;99288.38;;;18.58;70.78
18988;BME280;5494;51.796;10.952;2022-09-06T07:47:56;99292.53;;;18.94;69.31
18988;BME280;5494;51.796;10.952;2022-09-06T07:50:27;99302.34;;;18.25;72.05
18988;BME280;5494;51.796;10.952;2022-09-06T07:53:13;99286.06;;;18.20;72.07
18988;BME280;5494;51.796;10.952;2022-09-06T07:55:52;99281.16;;;18.48;71.12
18988;BME280;5494;51.796;10.952;2022-09-06T07:58:21;99275.25;;;19.12;69.78
18988;BME280;5494;51.796;10.952;2022-09-06T08:00:50;99274.66;;;19.51;67.49
18988;BME280;5494;51.796;10.952;2022-09-06T08:03:19;99278.88;;;20.47;63.61
18988;BME280;5494;51.796;10.952;2022-09-06T08:05:49;99280.13;;;20.01;64.46
18988;BME280;5494;51.796;10.952;2022-09-06T08:08:38;99276.81;;;20.29;64.69
18988;BME280;5494;51.796;10.952;2022-09-06T08:11:29;99280.69;;;20.46;62.85
18988;BME280;5494;51.796;10.952;2022-09-06T08:14:00;99273.97;;;20.42;64.17
18988;BME280;5494;51.796;10.952;2022-09-06T08:16:30;99275.34;;;20.76;62.95
18988;BME280;5494;51.796;10.952;2022-09-06T08:19:03;99278.13;;;20.35;64.43
18988;BME280;5494;51.796;10.952;2022-09-06T08:21:34;99273.56;;;20.16;65.24
18988;BME280;5494;51.796;10.952;2022-09-06T08:24:05;99274.53;;;20.36;64.76
18988;BME280;5494;51.796;10.952;2022-09-06T08:26:37;99267.03;;;20.20;65.22
18988;BME280;5494;51.796;10.952;2022-09-06T08:29:08;99266.28;;;20.60;64.50
18988;BME280;5494;51.796;10.952;2022-09-06T08:31:40;99261.97;;;21.66;60.21
18988;BME280;5494;51.796;10.952;2022-09-06T08:34:11;99261.06;;;22.14;58.57
18988;BME280;5494;51.796;10.952;2022-09-06T08:36:41;99258.59;;;21.93;59.50
18988;BME280;5494;51.796;10.952;2022-09-06T08:39:10;99256.78;;;22.13;58.84
18988;BME280;5494;51.796;10.952;2022-09-06T08:41:47;99250.41;;;22.06;58.39
18988;BME280;5494;51.796;10.952;2022-09-06T08:44:21;99261.44;;;21.53;61.30
18988;BME280;5494;51.796;10.952;2022-09-06T08:47:12;99255.75;;;22.33;58.24
18988;BME280;5494;51.796;10.952;2022-09-06T08:49:49;99261.66;;;21.02;62.15
18988;BME280;5494;51.796;10.952;2022-09-06T08:52:42;99262.56;;;22.63;58.15
18988;BME280;5494;51.796;10.952;2022-09-06T08:55:38;99262.72;;;23.16;55.41
18988;BME280;5494;51.796;10.952;2022-09-06T08:58:26;99262.38;;;23.72;53.35
18988;BME280;5494;51.796;10.952;2022-09-06T09:01:01;99255.81;;;22.78;56.05
18988;BME280;5494;51.796;10.952;2022-09-06T09:03:34;99259.88;;;23.17;55.17
18988;BME280;5494;51.796;10.952;2022-09-06T09:06:08;99259.56;;;23.03;55.59
18988;BME280;5494;51.796;10.952;2022-09-06T09:08:45;99251.66;;;21.82;59.89
18988;BME280;5494;51.796;10.952;2022-09-06T09:11:17;99246.13;;;22.22;59.05
18988;BME280;5494;51.796;10.952;2022-09-06T09:13:53;99238.50;;;22.19;59.42
18988;BME280;5494;51.796;10.952;2022-09-06T09:16:25;99233.78;;;22.77;57.24
18988;BME280;5494;51.796;10.952;2022-09-06T09:18:58;99234.31;;;22.54;58.31
18988;BME280;5494;51.796;10.952;2022-09-06T09:21:33;99231.31;;;23.47;55.38
18988;BME280;5494;51.796;10.952;2022-09-06T09:24:06;99226.47;;;24.38;52.47
18988;BME280;5494;51.796;10.952;2022-09-06T09:26:46;99228.31;;;23.85;53.53
18988;BME280;5494;51.796;10.952;2022-09-06T09:29:15;99231.84;;;23.15;55.48
18988;BME280;5494;51.796;10.952;2022-09-06T09:31:47;99222.50;;;23.11;56.12
18988;BME280;5494;51.796;10.952;2022-09-06T09:34:32;99218.88;;;22.03;58.79
18988;BME280;5494;51.796;10.952;2022-09-06T09:37:20;99215.81;;;22.07;58.58
18988;BME280;5494;51.796;10.952;2022-09-06T09:40:14;99207.94;;;22.52;57.62
18988;BME280;5494;51.796;10.952;2022-09-06T09:42:43;99206.75;;;23.27;55.73
18988;BME280;5494;51.796;10.952;2022-09-06T09:45:25;99208.34;;;23.20;57.21
18988;BME280;5494;51.796;10.952;2022-09-06T09:47:54;99206.22;;;23.41;55.02
18988;BME280;5494;51.796;10.952;2022-09-06T09:50:29;99201.38;;;23.54;54.50
18988;BME280;5494;51.796;10.952;2022-09-06T09:53:06;99203.81;;;23.12;55.55
18988;BME280;5494;51.796;10.952;2022-09-06T09:55:38;99202.06;;;23.03;55.84
18988;BME280;5494;51.796;10.952;2022-09-06T09:58:23;99194.84;;;22.51;57.58
18988;BME280;5494;51.796;10.952;2022-09-06T10:01:19;99193.22;;;22.67;57.08
18988;BME280;5494;51.796;10.952;2022-09-06T10:03:50;99191.25;;;22.42;57.68
18988;BME280;5494;51.796;10.952;2022-09-06T10:06:39;99184.47;;;22.03;59.73
18988;BME280;5494;51.796;10.952;2022-09-06T10:09:35;99183.19;;;22.34;58.41
18988;BME280;5494;51.796;10.952;2022-09-06T10:12:05;99182.31;;;21.59;60.49
18988;BME280;5494;51.796;10.952;2022-09-06T10:14:46;99182.34;;;21.31;62.08
18988;BME280;5494;51.796;10.952;2022-09-06T10:17:22;99183.19;;;21.31;61.10
18988;BME280;5494;51.796;10.952;2022-09-06T10:19:59;99189.88;;;21.06;62.74
18988;BME280;5494;51.796;10.952;2022-09-06T10:22:31;99189.03;;;21.06;62.78
18988;BME280;5494;51.796;10.952;2022-09-06T10:25:39;99182.09;;;21.34;63.03
18988;BME280;5494;51.796;10.952;2022-09-06T10:28:28;99189.84;;;21.45;61.90
18988;BME280;5494;51.796;10.952;2022-09-06T10:34:49;99205.59;;;21.37;62.02
18988;BME280;5494;51.796;10.952;2022-09-06T10:37:48;99196.28;;;21.42;61.48
18988;BME280;5494;51.796;10.952;2022-09-06T10:40:30;99215.78;;;21.32;61.84
18988;BME280;5494;51.796;10.952;2022-09-06T10:43:05;99211.31;;;21.42;61.66
18988;BME280;5494;51.796;10.952;2022-09-06T10:45:45;99215.72;;;21.80;59.74
18988;BME280;5494;51.796;10.952;2022-09-06T10:48:23;99205.72;;;21.64;60.28
18988;BME280;5494;51.796;10.952;2022-09-06T10:51:00;99198.84;;;21.81;59.73
18988;BME280;5494;51.796;10.952;2022-09-06T10:53:46;99203.44;;;21.79;59.37
18988;BME280;5494;51.796;10.952;2022-09-06T10:56:22;99206.47;;;21.93;59.16
18988;BME280;5494;51.796;10.952;2022-09-06T10:59:01;99195.09;;;21.83;58.82
18988;BME280;5494;51.796;10.952;2022-09-06T11:02:01;99188.56;;;22.24;58.02
18988;BME280;5494;51.796;10.952;2022-09-06T11:04:37;99193.56;;;22.27;57.68
18988;BME280;5494;51.796;10.952;2022-09-06T11:07:29;99193.63;;;22.18;58.00
18988;BME280;5494;51.796;10.952;2022-09-06T11:10:07;99200.53;;;22.28;57.37
18988;BME280;5494;51.796;10.952;2022-09-06T11:12:45;99187.47;;;22.17;57.85
18988;BME280;5494;51.796;10.952;2022-09-06T11:15:19;99196.53;;;22.15;58.81
18988;BME280;5494;51.796;10.952;2022-09-06T11:17:56;99188.66;;;22.60;57.37
18988;BME280;5494;51.796;10.952;2022-09-06T11:20:36;99202.16;;;22.66;56.40
18988;BME280;5494;51.796;10.952;2022-09-06T11:23:29;99185.56;;;22.64;56.69
18988;BME280;5494;51.796;10.952;2022-09-06T11:26:31;99196.25;;;22.72;56.29
18988;BME280;5494;51.796;10.952;2022-09-06T11:29:03;99183.34;;;23.05;55.54
18988;BME280;5494;51.796;10.952;2022-09-06T11:31:53;99191.13;;;23.42;54.28
18988;BME280;5494;51.796;10.952;2022-09-06T11:34:52;99186.91;;;23.49;53.99
18988;BME280;5494;51.796;10.952;2022-09-06T11:37:26;99194.91;;;23.39;54.64
18988;BME280;5494;51.796;10.952;2022-09-06T11:40:12;99169.47;;;23.72;54.13
18988;BME280;5494;51.796;10.952;2022-09-06T11:43:14;99169.31;;;23.30;54.16
18988;BME280;5494;51.796;10.952;2022-09-06T11:45:47;99165.97;;;23.28;54.96
18988;BME280;5494;51.796;10.952;2022-09-06T11:48:48;99158.09;;;23.36;55.55
18988;BME280;5494;51.796;10.952;2022-09-06T11:51:34;99150.66;;;23.66;54.25
18988;BME280;5494;51.796;10.952;2022-09-06T11:54:18;99149.28;;;23.53;54.54
18988;BME280;5494;51.796;10.952;2022-09-06T11:56:56;99145.69;;;23.63;54.85
18988;BME280;5494;51.796;10.952;2022-09-06T11:59:35;99143.09;;;24.05;53.33
18988;BME280;5494;51.796;10.952;2022-09-06T12:02:30;99135.78;;;24.32;53.16
18988;BME280;5494;51.796;10.952;2022-09-06T12:05:18;99124.19;;;24.50;53.42
18988;BME280;5494;51.796;10.952;2022-09-06T12:08:23;99120.91;;;24.80;52.08
18988;BME280;5494;51.796;10.952;2022-09-06T12:11:04;99116.09;;;24.67;51.30
18988;BME280;5494;51.796;10.952;2022-09-06T12:13:41;99113.59;;;24.74;53.25
18988;BME280;5494;51.796;10.952;2022-09-06T12:16:16;99115.28;;;24.75;53.69
18988;BME280;5494;51.796;10.952;2022-09-06T12:18:58;99113.59;;;24.74;53.96
18988;BME280;5494;51.796;10.952;2022-09-06T12:21:41;99105.97;;;25.03;53.23
18988;BME280;5494;51.796;10.952;2022-09-06T12:24:50;99105.66;;;24.98;53.27
18988;BME280;5494;51.796;10.952;2022-09-06T12:27:21;99108.66;;;25.11;53.28
18988;BME280;5494;51.796;10.952;2022-09-06T12:29:55;99108.91;;;24.52;54.49
18988;BME280;5494;51.796;10.952;2022-09-06T12:32:30;99094.63;;;24.53;54.61
18988;BME280;5494;51.796;10.952;2022-09-06T12:35:12;99094.75;;;24.43;54.85
18988;BME280;5494;51.796;10.952;2022-09-06T12:38:04;99094.97;;;24.66;54.09
18988;BME280;5494;51.796;10.952;2022-09-06T12:40:38;99091.16;;;24.77;55.29
18988;BME280;5494;51.796;10.952;2022-09-06T12:43:11;99083.06;;;25.02;53.83
18988;BME280;5494;51.796;10.952;2022-09-06T12:45:42;99084.69;;;25.11;53.95
18988;BME280;5494;51.796;10.952;2022-09-06T12:48:26;99097.81;;;24.89;53.96
18988;BME280;5494;51.796;10.952;2022-09-06T12:51:05;99089.13;;;24.62;54.45
18988;BME280;5494;51.796;10.952;2022-09-06T12:53:35;99087.19;;;24.81;54.31
18988;BME280;5494;51.796;10.952;2022-09-06T12:56:07;99074.38;;;24.84;54.50
18988;BME280;5494;51.796;10.952;2022-09-06T12:58:38;99075.09;;;25.02;54.47
18988;BME280;5494;51.796;10.952;2022-09-06T13:01:15;99064.75;;;25.07;54.53
18988;BME280;5494;51.796;10.952;2022-09-06T13:03:56;99058.75;;;25.05;54.68
18988;BME280;5494;51.796;10.952;2022-09-06T13:06:32;99058.75;;;25.30;54.97
18988;BME280;5494;51.796;10.952;2022-09-06T13:09:04;99066.53;;;25.31;54.27
18988;BME280;5494;51.796;10.952;2022-09-06T13:11:41;99064.06;;;25.22;55.56
18988;BME280;5494;51.796;10.952;2022-09-06T13:14:15;99050.13;;;24.95;56.04
18988;BME280;5494;51.796;10.952;2022-09-06T13:16:47;99053.75;;;25.10;56.34
18988;BME280;5494;51.796;10.952;2022-09-06T13:19:28;99042.31;;;25.10;56.64
18988;BME280;5494;51.796;10.952;2022-09-06T13:22:00;99048.28;;;25.04;57.54
18988;BME280;5494;51.796;10.952;2022-09-06T13:24:43;99051.41;;;25.32;56.29
18988;BME280;5494;51.796;10.952;2022-09-06T13:27:26;99037.47;;;25.22;55.42
18988;BME280;5494;51.796;10.952;2022-09-06T13:30:03;99043.63;;;25.06;56.43
18988;BME280;5494;51.796;10.952;2022-09-06T13:32:36;99025.31;;;25.19;56.50
18988;BME280;5494;51.796;10.952;2022-09-06T13:35:21;99030.06;;;25.48;56.08
18988;BME280;5494;51.796;10.952;2022-09-06T13:37:52;99029.50;;;25.77;54.22
18988;BME280;5494;51.796;10.952;2022-09-06T13:40:39;99026.47;;;25.80;54.30
18988;BME280;5494;51.796;10.952;2022-09-06T13:43:29;99029.34;;;25.78;54.86
18988;BME280;5494;51.796;10.952;2022-09-06T13:46:05;99027.06;;;25.98;55.04
18988;BME280;5494;51.796;10.952;2022-09-06T13:48:37;99019.50;;;26.10;55.06